sensor_id;sensor_type;location;lat;lon;timestamp;temperature;humidity
60353;DHT22;46196;52.970;6.954;2023-04-21T00:01:29;9.20;99.90
60353;DHT22;46196;52.970;6.954;2023-04-21T00:03:55;9.20;99.90
60353;DHT22;46196;52.970;6.954;2023-04-21T00:06:20;9.20;99.90
60353;DHT22;46196;52.970;6.954;2023-04-21T00:08:50;9.20;99.90
60353;DHT22;46196;52.970;6.954;2023-04-21T00:11:16;9.20;99.90
60353;DHT22;46196;52.970;6.954;2023-04-21T00:13:41;9.40;99.90
60353;DHT22;46196;52.970;6.954;2023-04-21T00:16:07;10.90;99.90
60353;DHT22;46196;52.970;6.954;2023-04-21T00:18:33;9.10;99.90
60353;DHT22;46196;52.970;6.954;2023-04-21T00:20:58;9.10;99.90
60353;DHT22;46196;52.970;6.954;2023-04-21T00:23:24;9.00;99.90
60353;DHT22;46196;52.970;6.954;2023-04-21T00:25:50;9.00;99.90
60353;DHT22;46196;52.970;6.954;2023-04-21T00:28:16;8.90;99.90
60353;DHT22;46196;52.970;6.954;2023-04-21T00:30:42;8.70;99.90
60353;DHT22;46196;52.970;6.954;2023-04-21T00:33:08;8.90;99.90
60353;DHT22;46196;52.970;6.954;2023-04-21T00:35:33;9.10;99.90
60353;DHT22;46196;52.970;6.954;2023-04-21T00:37:59;8.90;99.90
60353;DHT22;46196;52.970;6.954;2023-04-21T00:40:25;8.80;99.90
60353;DHT22;46196;52.970;6.954;2023-04-21T00:42:51;8.30;99.90
60353;DHT22;46196;52.970;6.954;2023-04-21T00:45:17;8.80;99.90
60353;DHT22;46196;52.970;6.954;2023-04-21T00:47:43;8.20;99.90
60353;DHT22;46196;52.970;6.954;2023-04-21T00:50:10;9.80;99.90
60353;DHT22;46196;52.970;6.954;2023-04-21T00:52:37;7.70;99.90
60353;DHT22;46196;52.970;6.954;2023-04-21T00:55:03;8.80;99.90
60353;DHT22;46196;52.970;6.954;2023-04-21T00:57:30;8.70;99.90
60353;DHT22;46196;52.970;6.954;2023-04-21T00:59:56;9.60;99.90
60353;DHT22;46196;52.970;6.954;2023-04-21T01:02:22;8.80;99.90
60353;DHT22;46196;52.970;6.954;2023-04-21T01:04:48;8.80;99.90
60353;DHT22;46196;52.970;6.954;2023-04-21T01:07:14;8.80;99.90
60353;DHT22;46196;52.970;6.954;2023-04-21T01:09:40;8.80;99.90
60353;DHT22;46196;52.970;6.954;2023-04-21T01:12:08;8.20;99.90
60353;DHT22;46196;52.970;6.954;2023-04-21T01:14:35;10.10;99.90
60353;DHT22;46196;52.970;6.954;2023-04-21T01:17:01;8.70;99.90
60353;DHT22;46196;52.970;6.954;2023-04-21T01:19:32;8.80;99.90
60353;DHT22;46196;52.970;6.954;2023-04-21T01:21:59;8.70;99.90
60353;DHT22;46196;52.970;6.954;2023-04-21T01:24:35;8.80;99.90
60353;DHT22;46196;52.970;6.954;2023-04-21T01:27:01;8.50;99.90
60353;DHT22;46196;52.970;6.954;2023-04-21T01:29:31;8.70;99.90
60353;DHT22;46196;52.970;6.954;2023-04-21T01:31:57;8.70;99.90
60353;DHT22;46196;52.970;6.954;2023-04-21T01:34:23;8.70;99.90
60353;DHT22;46196;52.970;6.954;2023-04-21T01:36:49;7.60;99.90
60353;DHT22;46196;52.970;6.954;2023-04-21T01:39:15;8.70;99.90
60353;DHT22;46196;52.970;6.954;2023-04-21T01:41:40;8.60;99.90
60353;DHT22;46196;52.970;6.954;2023-04-21T01:44:06;8.60;99.90
60353;DHT22;46196;52.970;6.954;2023-04-21T01:46:32;8.60;99.90
60353;DHT22;46196;52.970;6.954;2023-04-21T01:48:58;10.60;99.90
60353;DHT22;46196;52.970;6.954;2023-04-21T01:51:23;8.50;99.90
60353;DHT22;46196;52.970;6.954;2023-04-21T01:53:49;10.10;99.90
60353;DHT22;46196;52.970;6.954;2023-04-21T01:56:15;8.70;99.90
60353;DHT22;46196;52.970;6.954;2023-04-21T02:01:06;8.50;99.90
60353;DHT22;46196;52.970;6.954;2023-04-21T02:03:32;8.50;99.90
60353;DHT22;46196;52.970;6.954;2023-04-21T02:05:58;8.50;99.90
60353;DHT22;46196;52.970;6.954;2023-04-21T02:08:23;9.30;99.90
60353;DHT22;46196;52.970;6.954;2023-04-21T02:10:49;8.50;99.90
60353;DHT22;46196;52.970;6.954;2023-04-21T02:13:15;8.50;99.90
60353;DHT22;46196;52.970;6.954;2023-04-21T02:15:41;9.70;99.90
60353;DHT22;46196;52.970;6.954;2023-04-21T02:18:06;7.50;99.90
60353;DHT22;46196;52.970;6.954;2023-04-21T02:20:32;8.40;99.90
60353;DHT22;46196;52.970;6.954;2023-04-21T02:22:58;8.40;99.90
60353;DHT22;46196;52.970;6.954;2023-04-21T02:25:23;8.40;99.90
60353;DHT22;46196;52.970;6.954;2023-04-21T02:27:50;7.80;99.90
60353;DHT22;46196;52.970;6.954;2023-04-21T02:30:15;8.40;99.90
60353;DHT22;46196;52.970;6.954;2023-04-21T02:32:41;8.40;99.90
60353;DHT22;46196;52.970;6.954;2023-04-21T02:35:07;8.30;99.90
60353;DHT22;46196;52.970;6.954;2023-04-21T02:37:33;8.40;99.90
60353;DHT22;46196;52.970;6.954;2023-04-21T02:39:59;8.40;99.90
60353;DHT22;46196;52.970;6.954;2023-04-21T02:44:51;8.20;99.90
60353;DHT22;46196;52.970;6.954;2023-04-21T02:47:16;8.30;99.90
60353;DHT22;46196;52.970;6.954;2023-04-21T02:49:42;8.30;99.90
60353;DHT22;46196;52.970;6.954;2023-04-21T02:52:08;8.30;99.90
60353;DHT22;46196;52.970;6.954;2023-04-21T02:54:34;8.20;99.90
60353;DHT22;46196;52.970;6.954;2023-04-21T02:57:00;8.60;99.90
60353;DHT22;46196;52.970;6.954;2023-04-21T02:59:26;8.20;99.90
60353;DHT22;46196;52.970;6.954;2023-04-21T03:01:52;8.20;99.90
60353;DHT22;46196;52.970;6.954;2023-04-21T03:04:17;8.10;99.90
60353;DHT22;46196;52.970;6.954;2023-04-21T03:06:44;7.70;99.90
60353;DHT22;46196;52.970;6.954;2023-04-21T03:09:09;8.10;99.90
60353;DHT22;46196;52.970;6.954;2023-04-21T03:11:35;7.40;99.90
60353;DHT22;46196;52.970;6.954;2023-04-21T03:14:01;8.10;99.90
60353;DHT22;46196;52.970;6.954;2023-04-21T03:16:27;8.10;99.90
60353;DHT22;46196;52.970;6.954;2023-04-21T03:18:52;8.90;99.90
60353;DHT22;46196;52.970;6.954;2023-04-21T03:21:18;8.00;99.90
60353;DHT22;46196;52.970;6.954;2023-04-21T03:23:44;8.10;99.90
60353;DHT22;46196;52.970;6.954;2023-04-21T03:26:10;9.00;99.90
60353;DHT22;46196;52.970;6.954;2023-04-21T03:28:36;8.00;99.90
60353;DHT22;46196;52.970;6.954;2023-04-21T03:31:02;8.00;99.90
60353;DHT22;46196;52.970;6.954;2023-04-21T03:33:27;7.70;99.90
60353;DHT22;46196;52.970;6.954;2023-04-21T03:35:53;6.90;99.90
60353;DHT22;46196;52.970;6.954;2023-04-21T03:38:19;8.10;99.90
60353;DHT22;46196;52.970;6.954;2023-04-21T03:40:44;8.00;99.90
60353;DHT22;46196;52.970;6.954;2023-04-21T03:43:10;7.20;99.90
60353;DHT22;46196;52.970;6.954;2023-04-21T03:45:36;8.00;99.90
60353;DHT22;46196;52.970;6.954;2023-04-21T03:48:02;7.90;99.90
60353;DHT22;46196;52.970;6.954;2023-04-21T03:50:28;7.90;99.90
60353;DHT22;46196;52.970;6.954;2023-04-21T03:52:54;7.90;99.90
60353;DHT22;46196;52.970;6.954;2023-04-21T03:55:20;7.90;99.90
60353;DHT22;46196;52.970;6.954;2023-04-21T03:57:45;8.90;99.90
60353;DHT22;46196;52.970;6.954;2023-04-21T04:00:11;7.90;99.90
60353;DHT22;46196;52.970;6.954;2023-04-21T04:02:37;7.90;99.90
60353;DHT22;46196;52.970;6.954;2023-04-21T04:05:04;8.10;99.90
60353;DHT22;46196;52.970;6.954;2023-04-21T04:07:33;8.60;99.90
60353;DHT22;46196;52.970;6.954;2023-04-21T04:09:59;7.80;99.90
60353;DHT22;46196;52.970;6.954;2023-04-21T04:12:24;7.80;99.90
60353;DHT22;46196;52.970;6.954;2023-04-21T04:14:50;7.90;99.90
60353;DHT22;46196;52.970;6.954;2023-04-21T04:17:16;7.90;99.90
60353;DHT22;46196;52.970;6.954;2023-04-21T04:19:41;9.10;99.90
60353;DHT22;46196;52.970;6.954;2023-04-21T04:22:07;7.90;99.90
60353;DHT22;46196;52.970;6.954;2023-04-21T04:24:33;7.40;99.90
60353;DHT22;46196;52.970;6.954;2023-04-21T04:27:00;7.40;99.90
60353;DHT22;46196;52.970;6.954;2023-04-21T04:29:28;7.90;99.90
60353;DHT22;46196;52.970;6.954;2023-04-21T04:31:54;7.90;99.90
60353;DHT22;46196;52.970;6.954;2023-04-21T04:34:19;8.60;99.90
60353;DHT22;46196;52.970;6.954;2023-04-21T04:36:46;7.80;99.90
60353;DHT22;46196;52.970;6.954;2023-04-21T04:39:12;7.90;99.90
60353;DHT22;46196;52.970;6.954;2023-04-21T04:41:38;8.70;99.90
60353;DHT22;46196;52.970;6.954;2023-04-21T04:44:04;7.80;99.90
60353;DHT22;46196;52.970;6.954;2023-04-21T04:46:30;7.70;99.90
60353;DHT22;46196;52.970;6.954;2023-04-21T04:48:56;8.80;99.90
60353;DHT22;46196;52.970;6.954;2023-04-21T04:51:22;7.90;99.90
60353;DHT22;46196;52.970;6.954;2023-04-21T04:53:48;7.10;99.90
60353;DHT22;46196;52.970;6.954;2023-04-21T04:56:14;7.00;99.90
60353;DHT22;46196;52.970;6.954;2023-04-21T04:58:39;7.50;99.90
60353;DHT22;46196;52.970;6.954;2023-04-21T05:01:13;8.00;99.90
60353;DHT22;46196;52.970;6.954;2023-04-21T05:03:38;8.00;99.90
60353;DHT22;46196;52.970;6.954;2023-04-21T05:06:04;8.00;99.90
60353;DHT22;46196;52.970;6.954;2023-04-21T05:10:56;7.80;99.90
60353;DHT22;46196;52.970;6.954;2023-04-21T05:13:22;9.20;99.90
60353;DHT22;46196;52.970;6.954;2023-04-21T05:15:48;9.50;99.90
60353;DHT22;46196;52.970;6.954;2023-04-21T05:18:13;8.10;99.90
60353;DHT22;46196;52.970;6.954;2023-04-21T05:20:42;9.30;99.90
60353;DHT22;46196;52.970;6.954;2023-04-21T05:23:08;10.10;99.90
60353;DHT22;46196;52.970;6.954;2023-04-21T05:25:33;8.20;99.90
60353;DHT22;46196;52.970;6.954;2023-04-21T05:27:59;8.20;99.90
60353;DHT22;46196;52.970;6.954;2023-04-21T05:30:24;8.40;99.90
60353;DHT22;46196;52.970;6.954;2023-04-21T05:32:50;7.70;99.90
60353;DHT22;46196;52.970;6.954;2023-04-21T05:35:16;8.40;99.90
60353;DHT22;46196;52.970;6.954;2023-04-21T05:37:42;8.40;99.90
60353;DHT22;46196;52.970;6.954;2023-04-21T05:40:08;7.90;99.90
60353;DHT22;46196;52.970;6.954;2023-04-21T05:42:33;8.50;99.90
60353;DHT22;46196;52.970;6.954;2023-04-21T05:44:59;8.50;99.90
60353;DHT22;46196;52.970;6.954;2023-04-21T05:47:25;8.60;99.90
60353;DHT22;46196;52.970;6.954;2023-04-21T05:49:51;8.70;99.90
60353;DHT22;46196;52.970;6.954;2023-04-21T05:52:18;8.30;99.90
60353;DHT22;46196;52.970;6.954;2023-04-21T05:54:45;8.70;99.90
60353;DHT22;46196;52.970;6.954;2023-04-21T05:57:10;8.80;99.90
60353;DHT22;46196;52.970;6.954;2023-04-21T05:59:36;8.30;99.90
60353;DHT22;46196;52.970;6.954;2023-04-21T06:02:02;8.90;99.90
60353;DHT22;46196;52.970;6.954;2023-04-21T06:04:28;8.90;99.90
60353;DHT22;46196;52.970;6.954;2023-04-21T06:06:54;8.90;99.90
60353;DHT22;46196;52.970;6.954;2023-04-21T06:09:19;9.00;99.90
60353;DHT22;46196;52.970;6.954;2023-04-21T06:11:45;9.10;99.90
60353;DHT22;46196;52.970;6.954;2023-04-21T06:14:11;9.10;99.90
60353;DHT22;46196;52.970;6.954;2023-04-21T06:16:36;9.20;99.90
60353;DHT22;46196;52.970;6.954;2023-04-21T06:19:02;9.20;99.90
60353;DHT22;46196;52.970;6.954;2023-04-21T06:21:27;9.30;99.90
60353;DHT22;46196;52.970;6.954;2023-04-21T06:23:53;9.40;99.90
60353;DHT22;46196;52.970;6.954;2023-04-21T06:26:19;9.50;99.90
60353;DHT22;46196;52.970;6.954;2023-04-21T06:28:45;9.50;99.90
60353;DHT22;46196;52.970;6.954;2023-04-21T06:31:11;9.60;99.90
60353;DHT22;46196;52.970;6.954;2023-04-21T06:33:40;9.90;99.90
60353;DHT22;46196;52.970;6.954;2023-04-21T06:36:05;9.80;99.90
60353;DHT22;46196;52.970;6.954;2023-04-21T06:38:31;12.10;99.90
60353;DHT22;46196;52.970;6.954;2023-04-21T06:40:57;9.60;99.90
60353;DHT22;46196;52.970;6.954;2023-04-21T06:43:23;9.90;99.90
60353;DHT22;46196;52.970;6.954;2023-04-21T06:45:48;9.10;99.90
60353;DHT22;46196;52.970;6.954;2023-04-21T06:48:14;10.10;99.90
60353;DHT22;46196;52.970;6.954;2023-04-21T06:50:40;10.10;99.90
60353;DHT22;46196;52.970;6.954;2023-04-21T06:53:09;11.60;99.90
60353;DHT22;46196;52.970;6.954;2023-04-21T06:55:36;10.30;99.90
60353;DHT22;46196;52.970;6.954;2023-04-21T06:58:01;10.40;99.90
60353;DHT22;46196;52.970;6.954;2023-04-21T07:00:27;10.40;99.90
60353;DHT22;46196;52.970;6.954;2023-04-21T07:02:53;10.50;99.90
60353;DHT22;46196;52.970;6.954;2023-04-21T07:05:18;10.60;99.90
60353;DHT22;46196;52.970;6.954;2023-04-21T07:07:44;10.70;99.90
60353;DHT22;46196;52.970;6.954;2023-04-21T07:10:10;10.80;99.90
60353;DHT22;46196;52.970;6.954;2023-04-21T07:12:36;10.90;99.90
60353;DHT22;46196;52.970;6.954;2023-04-21T07:15:01;10.90;99.90
60353;DHT22;46196;52.970;6.954;2023-04-21T07:17:27;11.00;99.90
60353;DHT22;46196;52.970;6.954;2023-04-21T07:19:53;11.10;99.90
60353;DHT22;46196;52.970;6.954;2023-04-21T07:22:18;11.20;99.90
60353;DHT22;46196;52.970;6.954;2023-04-21T07:24:44;11.30;99.90
60353;DHT22;46196;52.970;6.954;2023-04-21T07:27:10;11.40;99.90
60353;DHT22;46196;52.970;6.954;2023-04-21T07:29:35;11.70;99.90
60353;DHT22;46196;52.970;6.954;2023-04-21T07:32:01;12.40;99.90
60353;DHT22;46196;52.970;6.954;2023-04-21T07:34:27;13.20;99.90
60353;DHT22;46196;52.970;6.954;2023-04-21T07:36:55;13.90;99.90
60353;DHT22;46196;52.970;6.954;2023-04-21T07:39:20;14.60;99.90
60353;DHT22;46196;52.970;6.954;2023-04-21T07:41:46;15.30;99.90
60353;DHT22;46196;52.970;6.954;2023-04-21T07:44:12;15.90;99.90
60353;DHT22;46196;52.970;6.954;2023-04-21T07:46:37;16.40;99.90
60353;DHT22;46196;52.970;6.954;2023-04-21T07:49:03;16.80;99.90
60353;DHT22;46196;52.970;6.954;2023-04-21T07:51:29;17.10;99.90
60353;DHT22;46196;52.970;6.954;2023-04-21T07:58:47;17.40;99.90
60353;DHT22;46196;52.970;6.954;2023-04-21T08:03:38;18.50;99.90
60353;DHT22;46196;52.970;6.954;2023-04-21T08:06:04;18.80;99.90
60353;DHT22;46196;52.970;6.954;2023-04-21T08:08:30;19.00;99.90
60353;DHT22;46196;52.970;6.954;2023-04-21T08:10:56;19.20;99.90
60353;DHT22;46196;52.970;6.954;2023-04-21T08:13:21;19.60;99.90
60353;DHT22;46196;52.970;6.954;2023-04-21T08:15:53;19.70;99.90
60353;DHT22;46196;52.970;6.954;2023-04-21T08:18:18;19.80;99.40
60353;DHT22;46196;52.970;6.954;2023-04-21T08:20:45;19.90;96.90
60353;DHT22;46196;52.970;6.954;2023-04-21T08:23:12;19.90;97.90
60353;DHT22;46196;52.970;6.954;2023-04-21T08:25:38;19.80;99.80
60353;DHT22;46196;52.970;6.954;2023-04-21T08:28:04;19.20;98.50
60353;DHT22;46196;52.970;6.954;2023-04-21T08:30:30;18.80;99.70
60353;DHT22;46196;52.970;6.954;2023-04-21T08:32:56;18.40;99.90
60353;DHT22;46196;52.970;6.954;2023-04-21T08:35:23;18.10;99.90
60353;DHT22;46196;52.970;6.954;2023-04-21T08:37:48;18.10;99.90
60353;DHT22;46196;52.970;6.954;2023-04-21T08:40:14;18.20;99.90
60353;DHT22;46196;52.970;6.954;2023-04-21T08:42:41;18.30;99.90
60353;DHT22;46196;52.970;6.954;2023-04-21T08:45:07;18.30;99.90
60353;DHT22;46196;52.970;6.954;2023-04-21T08:47:34;18.30;99.90
60353;DHT22;46196;52.970;6.954;2023-04-21T08:50:02;18.20;99.90
60353;DHT22;46196;52.970;6.954;2023-04-21T08:52:28;18.00;99.90
60353;DHT22;46196;52.970;6.954;2023-04-21T08:54:54;18.10;99.90
60353;DHT22;46196;52.970;6.954;2023-04-21T08:57:20;18.40;99.90
60353;DHT22;46196;52.970;6.954;2023-04-21T08:59:46;18.70;99.90
60353;DHT22;46196;52.970;6.954;2023-04-21T09:02:17;19.20;99.90
60353;DHT22;46196;52.970;6.954;2023-04-21T09:04:44;19.60;99.90
60353;DHT22;46196;52.970;6.954;2023-04-21T09:07:10;20.00;99.70
60353;DHT22;46196;52.970;6.954;2023-04-21T09:09:55;20.40;98.10
60353;DHT22;46196;52.970;6.954;2023-04-21T09:14:47;20.70;97.30
60353;DHT22;46196;52.970;6.954;2023-04-21T09:19:41;21.20;94.40
60353;DHT22;46196;52.970;6.954;2023-04-21T09:22:06;21.50;90.70
60353;DHT22;46196;52.970;6.954;2023-04-21T09:24:32;21.40;88.50
60353;DHT22;46196;52.970;6.954;2023-04-21T09:26:58;21.20;85.90
60353;DHT22;46196;52.970;6.954;2023-04-21T09:29:26;20.80;90.20
60353;DHT22;46196;52.970;6.954;2023-04-21T09:31:52;20.30;90.00
60353;DHT22;46196;52.970;6.954;2023-04-21T09:34:22;20.00;91.80
60353;DHT22;46196;52.970;6.954;2023-04-21T09:37:02;19.70;94.40
60353;DHT22;46196;52.970;6.954;2023-04-21T09:39:29;19.60;94.30
60353;DHT22;46196;52.970;6.954;2023-04-21T09:41:56;19.50;94.80
60353;DHT22;46196;52.970;6.954;2023-04-21T09:44:26;19.50;93.50
60353;DHT22;46196;52.970;6.954;2023-04-21T09:46:59;19.40;93.90
60353;DHT22;46196;52.970;6.954;2023-04-21T09:49:30;19.20;93.70
60353;DHT22;46196;52.970;6.954;2023-04-21T09:51:59;19.00;96.00
60353;DHT22;46196;52.970;6.954;2023-04-21T09:54:32;19.10;96.30
60353;DHT22;46196;52.970;6.954;2023-04-21T09:57:03;19.10;95.70
60353;DHT22;46196;52.970;6.954;2023-04-21T09:59:34;19.20;96.20
60353;DHT22;46196;52.970;6.954;2023-04-21T10:02:04;19.30;95.70
60353;DHT22;46196;52.970;6.954;2023-04-21T10:04:30;19.60;96.20
60353;DHT22;46196;52.970;6.954;2023-04-21T10:06:58;19.90;94.50
60353;DHT22;46196;52.970;6.954;2023-04-21T10:09:30;20.10;95.10
60353;DHT22;46196;52.970;6.954;2023-04-21T10:12:00;20.20;92.70
60353;DHT22;46196;52.970;6.954;2023-04-21T10:14:27;19.80;93.00
60353;DHT22;46196;52.970;6.954;2023-04-21T10:16:57;20.20;92.90
60353;DHT22;46196;52.970;6.954;2023-04-21T10:19:27;20.30;92.70
60353;DHT22;46196;52.970;6.954;2023-04-21T10:21:56;20.30;93.20
60353;DHT22;46196;52.970;6.954;2023-04-21T10:24:22;20.50;94.90
60353;DHT22;46196;52.970;6.954;2023-04-21T10:26:49;20.70;92.40
60353;DHT22;46196;52.970;6.954;2023-04-21T10:29:27;20.80;91.20
60353;DHT22;46196;52.970;6.954;2023-04-21T10:31:54;20.80;91.60
60353;DHT22;46196;52.970;6.954;2023-04-21T10:34:34;20.90;91.70
60353;DHT22;46196;52.970;6.954;2023-04-21T10:39:30;21.00;81.50
60353;DHT22;46196;52.970;6.954;2023-04-21T10:44:41;21.10;82.60
60353;DHT22;46196;52.970;6.954;2023-04-21T10:47:07;21.30;81.30
60353;DHT22;46196;52.970;6.954;2023-04-21T10:49:37;21.30;78.20
60353;DHT22;46196;52.970;6.954;2023-04-21T10:52:05;21.20;74.80
60353;DHT22;46196;52.970;6.954;2023-04-21T10:55:03;21.10;74.10
60353;DHT22;46196;52.970;6.954;2023-04-21T10:57:32;20.40;72.40
60353;DHT22;46196;52.970;6.954;2023-04-21T10:59:58;20.90;73.10
60353;DHT22;46196;52.970;6.954;2023-04-21T11:02:25;20.90;74.80
60353;DHT22;46196;52.970;6.954;2023-04-21T11:04:52;20.90;72.30
60353;DHT22;46196;52.970;6.954;2023-04-21T11:07:22;20.90;71.00
60353;DHT22;46196;52.970;6.954;2023-04-21T11:10:02;21.00;68.20
60353;DHT22;46196;52.970;6.954;2023-04-21T11:12:39;21.00;64.00
60353;DHT22;46196;52.970;6.954;2023-04-21T11:15:07;21.00;64.80
60353;DHT22;46196;52.970;6.954;2023-04-21T11:17:34;20.60;62.80
60353;DHT22;46196;52.970;6.954;2023-04-21T11:20:01;21.00;64.40
60353;DHT22;46196;52.970;6.954;2023-04-21T11:22:26;21.00;65.20
60353;DHT22;46196;52.970;6.954;2023-04-21T11:24:54;21.10;64.00
60353;DHT22;46196;52.970;6.954;2023-04-21T11:27:20;21.20;65.80
60353;DHT22;46196;52.970;6.954;2023-04-21T11:29:48;21.30;64.70
60353;DHT22;46196;52.970;6.954;2023-04-21T11:32:14;21.50;61.00
60353;DHT22;46196;52.970;6.954;2023-04-21T11:34:41;21.50;58.60
60353;DHT22;46196;52.970;6.954;2023-04-21T11:37:08;21.50;57.40
60353;DHT22;46196;52.970;6.954;2023-04-21T11:39:33;21.30;58.50
60353;DHT22;46196;52.970;6.954;2023-04-21T11:41:59;21.20;59.40
60353;DHT22;46196;52.970;6.954;2023-04-21T11:44:53;21.20;58.50
60353;DHT22;46196;52.970;6.954;2023-04-21T11:47:22;21.10;59.80
60353;DHT22;46196;52.970;6.954;2023-04-21T11:49:50;21.00;60.30
60353;DHT22;46196;52.970;6.954;2023-04-21T11:52:37;20.90;58.40
60353;DHT22;46196;52.970;6.954;2023-04-21T11:55:04;20.70;59.50
60353;DHT22;46196;52.970;6.954;2023-04-21T11:57:31;20.70;59.80
60353;DHT22;46196;52.970;6.954;2023-04-21T12:00:03;20.70;62.10
60353;DHT22;46196;52.970;6.954;2023-04-21T12:02:31;20.90;62.20
60353;DHT22;46196;52.970;6.954;2023-04-21T12:05:05;21.10;61.00
60353;DHT22;46196;52.970;6.954;2023-04-21T12:07:43;21.00;61.30
60353;DHT22;46196;52.970;6.954;2023-04-21T12:10:16;21.00;60.60
60353;DHT22;46196;52.970;6.954;2023-04-21T12:12:43;21.10;60.40
60353;DHT22;46196;52.970;6.954;2023-04-21T12:15:10;21.30;60.70
60353;DHT22;46196;52.970;6.954;2023-04-21T12:17:46;21.40;60.50
60353;DHT22;46196;52.970;6.954;2023-04-21T12:20:15;21.50;59.10
60353;DHT22;46196;52.970;6.954;2023-04-21T12:22:41;21.50;56.20
60353;DHT22;46196;52.970;6.954;2023-04-21T12:25:07;21.40;56.30
60353;DHT22;46196;52.970;6.954;2023-04-21T12:27:33;21.40;57.70
60353;DHT22;46196;52.970;6.954;2023-04-21T12:29:59;21.40;56.90
60353;DHT22;46196;52.970;6.954;2023-04-21T12:32:25;21.40;56.20
60353;DHT22;46196;52.970;6.954;2023-04-21T12:34:51;21.50;54.90
60353;DHT22;46196;52.970;6.954;2023-04-21T12:37:17;21.40;51.30
60353;DHT22;46196;52.970;6.954;2023-04-21T12:39:43;21.40;49.60
60353;DHT22;46196;52.970;6.954;2023-04-21T12:42:09;21.30;50.50
60353;DHT22;46196;52.970;6.954;2023-04-21T12:44:35;21.20;50.60
60353;DHT22;46196;52.970;6.954;2023-04-21T12:47:00;21.30;49.40
60353;DHT22;46196;52.970;6.954;2023-04-21T12:49:26;23.10;50.70
60353;DHT22;46196;52.970;6.954;2023-04-21T12:51:52;21.70;50.50
60353;DHT22;46196;52.970;6.954;2023-04-21T12:54:17;21.80;47.90
60353;DHT22;46196;52.970;6.954;2023-04-21T12:56:43;23.30;48.50
60353;DHT22;46196;52.970;6.954;2023-04-21T12:59:09;22.10;47.80
60353;DHT22;46196;52.970;6.954;2023-04-21T13:01:36;22.20;49.00
60353;DHT22;46196;52.970;6.954;2023-04-21T13:04:02;22.20;49.30
60353;DHT22;46196;52.970;6.954;2023-04-21T13:06:28;22.40;48.40
60353;DHT22;46196;52.970;6.954;2023-04-21T13:08:55;22.60;46.30
60353;DHT22;46196;52.970;6.954;2023-04-21T13:11:21;22.80;44.00
60353;DHT22;46196;52.970;6.954;2023-04-21T13:13:47;22.70;44.90
60353;DHT22;46196;52.970;6.954;2023-04-21T13:16:12;22.70;43.90
60353;DHT22;46196;52.970;6.954;2023-04-21T13:18:38;22.50;44.20
60353;DHT22;46196;52.970;6.954;2023-04-21T13:21:04;22.30;44.30
60353;DHT22;46196;52.970;6.954;2023-04-21T13:23:30;22.10;45.10
60353;DHT22;46196;52.970;6.954;2023-04-21T13:25:56;22.00;47.40
60353;DHT22;46196;52.970;6.954;2023-04-21T13:28:21;21.80;44.40
60353;DHT22;46196;52.970;6.954;2023-04-21T13:30:49;21.70;44.90
60353;DHT22;46196;52.970;6.954;2023-04-21T13:33:15;21.60;45.50
60353;DHT22;46196;52.970;6.954;2023-04-21T13:35:41;21.50;45.10
60353;DHT22;46196;52.970;6.954;2023-04-21T13:38:07;21.40;45.60
60353;DHT22;46196;52.970;6.954;2023-04-21T13:40:32;21.30;46.30
60353;DHT22;46196;52.970;6.954;2023-04-21T13:42:58;21.40;46.60
60353;DHT22;46196;52.970;6.954;2023-04-21T13:45:24;21.50;45.80
60353;DHT22;46196;52.970;6.954;2023-04-21T13:47:51;21.50;45.90
60353;DHT22;46196;52.970;6.954;2023-04-21T13:50:17;21.40;45.60
60353;DHT22;46196;52.970;6.954;2023-04-21T13:52:43;21.60;46.20
60353;DHT22;46196;52.970;6.954;2023-04-21T13:55:09;21.70;44.70
60353;DHT22;46196;52.970;6.954;2023-04-21T13:57:36;21.80;45.90
60353;DHT22;46196;52.970;6.954;2023-04-21T14:00:03;22.00;43.10
60353;DHT22;46196;52.970;6.954;2023-04-21T14:02:30;22.10;41.80
60353;DHT22;46196;52.970;6.954;2023-04-21T14:04:56;22.30;43.00
60353;DHT22;46196;52.970;6.954;2023-04-21T14:07:21;22.40;43.40
60353;DHT22;46196;52.970;6.954;2023-04-21T14:09:48;22.60;41.80
60353;DHT22;46196;52.970;6.954;2023-04-21T14:12:14;22.70;40.60
60353;DHT22;46196;52.970;6.954;2023-04-21T14:14:40;22.70;41.10
60353;DHT22;46196;52.970;6.954;2023-04-21T14:17:06;22.80;41.50
60353;DHT22;46196;52.970;6.954;2023-04-21T14:19:32;22.80;40.30
60353;DHT22;46196;52.970;6.954;2023-04-21T14:21:58;22.50;40.70
60353;DHT22;46196;52.970;6.954;2023-04-21T14:24:23;22.30;40.90
60353;DHT22;46196;52.970;6.954;2023-04-21T14:26:53;22.20;41.90
60353;DHT22;46196;52.970;6.954;2023-04-21T14:29:18;21.50;42.20
60353;DHT22;46196;52.970;6.954;2023-04-21T14:31:44;22.00;42.70
60353;DHT22;46196;52.970;6.954;2023-04-21T14:34:10;21.90;43.40
60353;DHT22;46196;52.970;6.954;2023-04-21T14:36:36;21.90;43.40
60353;DHT22;46196;52.970;6.954;2023-04-21T14:39:02;21.80;43.00
60353;DHT22;46196;52.970;6.954;2023-04-21T14:41:27;21.80;43.90
60353;DHT22;46196;52.970;6.954;2023-04-21T14:43:53;21.80;44.40
60353;DHT22;46196;52.970;6.954;2023-04-21T14:46:20;21.80;45.60
60353;DHT22;46196;52.970;6.954;2023-04-21T14:48:46;21.60;43.10
60353;DHT22;46196;52.970;6.954;2023-04-21T14:51:12;22.00;43.60
60353;DHT22;46196;52.970;6.954;2023-04-21T14:53:38;22.10;43.40
60353;DHT22;46196;52.970;6.954;2023-04-21T14:56:05;22.20;43.60
60353;DHT22;46196;52.970;6.954;2023-04-21T14:58:30;22.30;42.80
60353;DHT22;46196;52.970;6.954;2023-04-21T15:00:56;22.50;42.40
60353;DHT22;46196;52.970;6.954;2023-04-21T15:03:22;22.70;42.20
60353;DHT22;46196;52.970;6.954;2023-04-21T15:05:48;22.80;41.90
60353;DHT22;46196;52.970;6.954;2023-04-21T15:08:14;22.90;42.10
60353;DHT22;46196;52.970;6.954;2023-04-21T15:10:43;23.00;43.30
60353;DHT22;46196;52.970;6.954;2023-04-21T15:13:10;23.20;41.90
60353;DHT22;46196;52.970;6.954;2023-04-21T15:15:36;23.30;41.30
60353;DHT22;46196;52.970;6.954;2023-04-21T15:18:01;23.30;41.30
60353;DHT22;46196;52.970;6.954;2023-04-21T15:20:27;23.20;41.90
60353;DHT22;46196;52.970;6.954;2023-04-21T15:22:53;21.70;40.60
60353;DHT22;46196;52.970;6.954;2023-04-21T15:25:18;22.70;41.30
60353;DHT22;46196;52.970;6.954;2023-04-21T15:27:44;22.50;42.90
60353;DHT22;46196;52.970;6.954;2023-04-21T15:30:11;22.30;42.40
60353;DHT22;46196;52.970;6.954;2023-04-21T15:32:37;22.20;42.70
60353;DHT22;46196;52.970;6.954;2023-04-21T15:35:03;22.00;42.90
60353;DHT22;46196;52.970;6.954;2023-04-21T15:37:29;21.80;43.60
60353;DHT22;46196;52.970;6.954;2023-04-21T15:39:55;21.60;44.10
60353;DHT22;46196;52.970;6.954;2023-04-21T15:42:21;21.50;43.90
60353;DHT22;46196;52.970;6.954;2023-04-21T15:44:48;20.70;43.30
60353;DHT22;46196;52.970;6.954;2023-04-21T15:47:13;21.20;44.30
60353;DHT22;46196;52.970;6.954;2023-04-21T15:49:42;21.10;44.00
60353;DHT22;46196;52.970;6.954;2023-04-21T15:52:08;21.00;43.80
60353;DHT22;46196;52.970;6.954;2023-04-21T15:54:33;20.90;45.10
60353;DHT22;46196;52.970;6.954;2023-04-21T15:57:00;20.90;44.30
60353;DHT22;46196;52.970;6.954;2023-04-21T15:59:26;20.80;44.00